createdAt,value
2017-09-24T00:00:24.230Z,0
2017-09-24T00:01:04.700Z,0
2017-09-24T00:01:45.152Z,0
2017-09-24T00:02:25.609Z,0
2017-09-24T00:03:06.061Z,0
2017-09-24T00:03:46.520Z,0
2017-09-24T00:04:26.969Z,0
2017-09-24T00:05:07.424Z,0
2017-09-24T00:05:47.879Z,0
2017-09-24T00:06:28.329Z,0
2017-09-24T00:07:08.788Z,0
2017-09-24T00:07:49.253Z,0
2017-09-24T00:08:29.701Z,0
2017-09-24T00:09:10.157Z,0
2017-09-24T00:09:50.617Z,0
2017-09-24T00:10:31.067Z,0
2017-09-24T00:11:11.523Z,0
2017-09-24T00:11:51.963Z,0
2017-09-24T00:12:32.428Z,0
2017-09-24T00:13:12.904Z,0
2017-09-24T00:13:53.322Z,0
2017-09-24T00:14:33.779Z,0
2017-09-24T00:15:14.254Z,0
2017-09-24T00:15:54.679Z,0
2017-09-24T00:16:35.147Z,0
2017-09-24T00:17:15.599Z,0
2017-09-24T00:17:56.055Z,0
2017-09-24T00:18:36.510Z,0
2017-09-24T00:19:16.957Z,0
2017-09-24T00:19:57.414Z,0
2017-09-24T00:20:37.871Z,0
2017-09-24T00:21:18.325Z,0
2017-09-24T00:21:58.781Z,0
2017-09-24T00:22:39.231Z,0
2017-09-24T00:23:19.686Z,0
2017-09-24T00:24:00.151Z,0
2017-09-24T00:24:40.610Z,0
2017-09-24T00:25:21.067Z,0
2017-09-24T00:26:01.523Z,0
2017-09-24T00:26:41.973Z,0
2017-09-24T00:27:22.420Z,0
2017-09-24T00:28:02.879Z,0
2017-09-24T00:28:43.327Z,0
2017-09-24T00:29:23.781Z,0
2017-09-24T00:30:04.235Z,0
2017-09-24T00:30:44.687Z,0
2017-09-24T00:31:25.133Z,0
2017-09-24T00:32:05.594Z,0
2017-09-24T00:32:46.052Z,0
2017-09-24T00:33:26.505Z,0
2017-09-24T00:34:06.962Z,0
2017-09-24T00:34:47.410Z,0
2017-09-24T00:35:27.860Z,0
2017-09-24T00:36:08.305Z,0
2017-09-24T00:36:48.769Z,0
2017-09-24T00:37:29.250Z,0
2017-09-24T00:38:09.701Z,0
2017-09-24T00:38:50.161Z,0
2017-09-24T00:39:30.616Z,0
2017-09-24T00:40:11.065Z,0
2017-09-24T00:40:51.517Z,0
2017-09-24T00:41:31.979Z,0
2017-09-24T00:42:12.435Z,0
2017-09-24T00:42:52.888Z,0
2017-09-24T00:43:33.344Z,0
2017-09-24T00:44:13.826Z,0
2017-09-24T00:44:54.263Z,0
2017-09-24T00:45:34.718Z,0
2017-09-24T00:46:15.172Z,0
2017-09-24T00:46:55.626Z,0
2017-09-24T00:47:36.082Z,0
2017-09-24T00:48:16.533Z,0
2017-09-24T00:48:56.986Z,0
2017-09-24T00:49:37.442Z,0
2017-09-24T00:50:17.910Z,0
2017-09-24T00:50:58.356Z,0
2017-09-24T00:51:38.850Z,0
2017-09-24T00:52:19.298Z,0
2017-09-24T00:52:59.749Z,0
2017-09-24T00:53:40.203Z,0
2017-09-24T00:54:20.663Z,0
2017-09-24T00:55:01.114Z,0
2017-09-24T00:55:41.592Z,0
2017-09-24T00:56:22.047Z,0
2017-09-24T00:57:02.501Z,0
2017-09-24T00:57:42.945Z,0
2017-09-24T00:58:23.394Z,0
2017-09-24T00:59:03.858Z,0
2017-09-24T00:59:44.317Z,0
2017-09-24T01:00:24.768Z,0
2017-09-24T01:01:05.227Z,0
2017-09-24T01:01:45.681Z,0
2017-09-24T01:02:26.129Z,0
2017-09-24T01:03:06.584Z,0
2017-09-24T01:03:47.029Z,0
2017-09-24T01:04:27.486Z,0
2017-09-24T01:05:07.942Z,0
2017-09-24T01:05:48.393Z,0
2017-09-24T01:06:28.855Z,0
2017-09-24T01:07:09.304Z,0
2017-09-24T01:07:49.771Z,0
2017-09-24T01:08:30.223Z,0
2017-09-24T01:09:10.680Z,0
2017-09-24T01:09:51.149Z,0
2017-09-24T01:10:31.593Z,0
2017-09-24T01:11:12.050Z,0
2017-09-24T01:11:52.512Z,0
2017-09-24T01:12:32.962Z,0
2017-09-24T01:13:13.431Z,0
2017-09-24T01:13:53.888Z,0
2017-09-24T01:14:34.343Z,0
2017-09-24T01:15:14.800Z,0
2017-09-24T01:15:55.267Z,0
2017-09-24T01:16:35.720Z,0
2017-09-24T01:17:16.177Z,0
2017-09-24T01:17:56.637Z,0
2017-09-24T01:18:37.090Z,0
2017-09-24T01:19:17.528Z,0
2017-09-24T01:19:58.012Z,0
2017-09-24T01:20:38.461Z,0
2017-09-24T01:21:18.924Z,0
2017-09-24T01:21:59.380Z,0
2017-09-24T01:22:39.834Z,0
2017-09-24T01:23:20.294Z,0
2017-09-24T01:24:00.749Z,0
2017-09-24T01:24:41.185Z,0
2017-09-24T01:25:21.631Z,0
2017-09-24T01:26:02.083Z,0
2017-09-24T01:26:42.540Z,0
2017-09-24T01:27:22.991Z,0
2017-09-24T01:28:03.442Z,0
2017-09-24T01:28:43.891Z,0
2017-09-24T01:29:24.337Z,0
2017-09-24T01:30:04.786Z,0
2017-09-24T01:30:45.237Z,0
2017-09-24T01:31:25.692Z,0
2017-09-24T01:32:06.134Z,0
2017-09-24T01:34:34.179Z,0
2017-09-24T01:35:14.635Z,0
2017-09-24T01:35:55.099Z,0
2017-09-24T01:36:35.545Z,0
2017-09-24T01:37:16.001Z,0
2017-09-24T01:37:56.454Z,0
2017-09-24T01:38:36.909Z,0
2017-09-24T01:39:17.357Z,0
2017-09-24T01:39:57.812Z,0
2017-09-24T01:40:38.260Z,0
2017-09-24T01:41:18.706Z,0
2017-09-24T01:41:59.164Z,0
2017-09-24T01:42:39.612Z,0
2017-09-24T01:43:20.057Z,0
2017-09-24T01:44:00.505Z,0
2017-09-24T01:44:40.961Z,0
2017-09-24T01:45:21.411Z,0
2017-09-24T01:46:01.866Z,0
2017-09-24T01:46:42.323Z,0
2017-09-24T01:47:22.779Z,0
2017-09-24T01:48:03.236Z,0
2017-09-24T01:48:43.692Z,0
2017-09-24T01:49:24.147Z,0
2017-09-24T01:50:04.600Z,0
2017-09-24T01:50:45.052Z,0
2017-09-24T01:51:25.503Z,0
2017-09-24T01:52:05.943Z,0
2017-09-24T01:52:46.397Z,0
2017-09-24T01:53:26.848Z,0
2017-09-24T01:54:07.301Z,0
2017-09-24T01:54:47.753Z,0
2017-09-24T01:55:28.201Z,0
2017-09-24T01:56:08.650Z,0
2017-09-24T01:56:49.101Z,0
2017-09-24T01:57:29.559Z,0
2017-09-24T01:58:10.011Z,0
2017-09-24T01:58:50.489Z,0
2017-09-24T01:59:30.945Z,0
2017-09-24T02:00:11.404Z,0
2017-09-24T02:00:51.860Z,0
2017-09-24T02:01:32.318Z,0
2017-09-24T02:02:12.769Z,0
2017-09-24T02:02:53.219Z,0
2017-09-24T02:03:33.672Z,0
2017-09-24T02:04:14.143Z,0
2017-09-24T02:04:54.584Z,0
2017-09-24T02:05:35.036Z,0
2017-09-24T02:06:15.496Z,0
2017-09-24T02:06:55.960Z,0
2017-09-24T02:07:36.414Z,0
2017-09-24T02:08:16.868Z,0
2017-09-24T02:08:57.326Z,0
2017-09-24T02:09:37.788Z,0
2017-09-24T02:10:18.232Z,0
2017-09-24T02:10:58.687Z,0
2017-09-24T02:11:39.149Z,0
2017-09-24T02:12:19.607Z,0
2017-09-24T02:13:00.068Z,0
2017-09-24T02:13:40.525Z,0
2017-09-24T02:14:20.974Z,0
2017-09-24T02:15:01.424Z,0
2017-09-24T02:15:41.869Z,0
2017-09-24T02:16:22.333Z,0
2017-09-24T02:17:02.786Z,0
2017-09-24T02:17:43.246Z,0
2017-09-24T02:18:23.696Z,0
2017-09-24T02:19:04.151Z,0
2017-09-24T02:19:44.608Z,0
2017-09-24T02:20:25.069Z,0
2017-09-24T02:21:05.519Z,0
2017-09-24T02:21:45.976Z,0
2017-09-24T02:22:26.433Z,0
2017-09-24T02:23:06.882Z,0
2017-09-24T02:23:47.330Z,0
2017-09-24T02:24:27.785Z,0
2017-09-24T02:25:08.244Z,0
2017-09-24T02:25:48.693Z,0
2017-09-24T02:26:29.151Z,0
2017-09-24T02:27:09.599Z,0
2017-09-24T02:27:50.056Z,0
2017-09-24T02:28:30.512Z,0
2017-09-24T02:29:10.965Z,0
2017-09-24T02:29:51.420Z,0
2017-09-24T02:30:31.872Z,0
2017-09-24T02:31:12.337Z,0
2017-09-24T02:31:52.789Z,0
2017-09-24T02:32:33.247Z,0
2017-09-24T02:33:13.702Z,0
2017-09-24T02:33:54.159Z,0
2017-09-24T02:34:34.617Z,0
2017-09-24T02:35:15.078Z,0
2017-09-24T02:35:55.527Z,0
2017-09-24T02:36:35.985Z,0
2017-09-24T02:37:16.438Z,0
2017-09-24T02:37:56.900Z,0
2017-09-24T02:38:37.352Z,0
2017-09-24T02:39:17.806Z,0
2017-09-24T02:39:58.259Z,0
2017-09-24T02:40:38.740Z,0
2017-09-24T02:41:19.198Z,0
2017-09-24T02:41:59.656Z,0
2017-09-24T02:42:40.108Z,0
2017-09-24T02:43:20.562Z,0
2017-09-24T02:44:01.012Z,0
2017-09-24T02:44:41.469Z,0
2017-09-24T02:45:21.920Z,0
2017-09-24T02:46:02.388Z,0
2017-09-24T02:46:42.850Z,0
2017-09-24T02:47:23.305Z,0
2017-09-24T02:48:03.764Z,0
2017-09-24T02:48:44.213Z,0
2017-09-24T02:49:24.670Z,0
2017-09-24T02:50:05.119Z,0
2017-09-24T02:50:45.594Z,0
2017-09-24T02:51:26.043Z,0
2017-09-24T02:52:06.495Z,0
2017-09-24T02:52:46.949Z,0
2017-09-24T02:53:27.403Z,0
2017-09-24T02:54:07.852Z,0
2017-09-24T02:54:48.318Z,0
2017-09-24T02:55:28.770Z,0
2017-09-24T02:56:09.225Z,0
2017-09-24T02:56:49.684Z,0
2017-09-24T02:57:30.133Z,0
2017-09-24T02:58:10.585Z,0
2017-09-24T02:58:51.043Z,0
2017-09-24T02:59:31.498Z,0
2017-09-24T03:00:11.950Z,0
2017-09-24T03:00:52.390Z,0
2017-09-24T03:01:32.851Z,0
2017-09-24T03:02:13.307Z,0
2017-09-24T03:02:53.761Z,0
2017-09-24T03:03:34.218Z,0
2017-09-24T03:04:14.672Z,0
2017-09-24T03:04:55.144Z,0
2017-09-24T03:05:35.576Z,0
2017-09-24T03:06:16.035Z,0
2017-09-24T03:06:56.478Z,0
2017-09-24T03:07:36.938Z,0
2017-09-24T03:08:17.398Z,0
2017-09-24T03:08:57.852Z,0
2017-09-24T03:09:38.313Z,0
2017-09-24T03:10:18.763Z,0
2017-09-24T03:10:59.220Z,0
2017-09-24T03:11:39.671Z,0
2017-09-24T03:12:20.142Z,0
2017-09-24T03:13:00.597Z,0
2017-09-24T03:13:41.051Z,0
2017-09-24T03:14:21.504Z,0
2017-09-24T03:15:01.960Z,0
2017-09-24T03:15:42.415Z,0
2017-09-24T03:16:22.866Z,0
2017-09-24T03:17:03.318Z,0
2017-09-24T03:17:43.777Z,0
2017-09-24T03:18:24.231Z,0
2017-09-24T03:19:04.683Z,0
2017-09-24T03:19:45.139Z,0
2017-09-24T03:20:25.595Z,0
2017-09-24T03:21:06.055Z,0
2017-09-24T03:21:46.503Z,0
2017-09-24T03:22:26.956Z,0
2017-09-24T03:23:07.409Z,0
2017-09-24T03:23:47.860Z,0
2017-09-24T03:24:28.328Z,0
2017-09-24T03:25:08.781Z,0
2017-09-24T03:25:49.230Z,0
2017-09-24T03:26:29.694Z,0
2017-09-24T03:27:10.143Z,0
2017-09-24T03:27:50.600Z,0
2017-09-24T03:28:31.048Z,0
2017-09-24T03:29:11.499Z,0
2017-09-24T03:29:51.955Z,0
2017-09-24T03:30:32.409Z,0
2017-09-24T03:31:12.867Z,0
2017-09-24T03:31:53.323Z,0
2017-09-24T03:32:33.799Z,0
2017-09-24T03:33:14.254Z,0
2017-09-24T03:33:54.713Z,0
2017-09-24T03:34:35.173Z,0
2017-09-24T03:35:15.631Z,0
2017-09-24T03:35:56.084Z,0
2017-09-24T03:36:36.542Z,0
2017-09-24T03:37:16.997Z,0
2017-09-24T03:37:57.449Z,0
2017-09-24T03:38:37.905Z,0
2017-09-24T03:39:18.369Z,0
2017-09-24T03:39:58.821Z,0
2017-09-24T03:40:39.265Z,0
2017-09-24T03:41:19.716Z,0
2017-09-24T03:42:00.171Z,0
2017-09-24T03:42:40.628Z,0
2017-09-24T03:43:21.092Z,0
2017-09-24T03:44:01.557Z,0
2017-09-24T03:44:42.008Z,0
2017-09-24T03:45:22.468Z,0
2017-09-24T03:46:02.932Z,0
2017-09-24T03:46:43.393Z,0
2017-09-24T03:47:23.858Z,0
2017-09-24T03:48:04.310Z,0
2017-09-24T03:48:44.763Z,0
2017-09-24T03:49:25.230Z,0
2017-09-24T03:50:05.683Z,0
2017-09-24T03:50:46.141Z,0
2017-09-24T03:51:26.590Z,0
2017-09-24T03:52:07.045Z,0
2017-09-24T03:52:47.492Z,0
2017-09-24T03:53:27.943Z,0
2017-09-24T03:54:08.402Z,0
2017-09-24T03:54:48.856Z,0
2017-09-24T03:55:29.307Z,0
2017-09-24T03:56:09.764Z,0
2017-09-24T03:56:50.229Z,0
2017-09-24T03:57:30.687Z,0
2017-09-24T03:58:11.140Z,0
2017-09-24T03:58:51.596Z,0
2017-09-24T03:59:32.053Z,0
2017-09-24T04:00:12.517Z,0
2017-09-24T04:00:52.970Z,0
2017-09-24T04:01:33.420Z,0
2017-09-24T04:02:13.871Z,0
2017-09-24T04:02:54.330Z,0
2017-09-24T04:03:34.787Z,0
2017-09-24T04:04:15.245Z,0
2017-09-24T04:04:55.698Z,0
2017-09-24T04:05:36.149Z,0
2017-09-24T04:06:16.606Z,0
2017-09-24T04:06:57.061Z,0
2017-09-24T04:09:30.076Z,0
2017-09-24T04:10:10.530Z,0
2017-09-24T04:10:50.985Z,0
2017-09-24T04:11:31.437Z,0
2017-09-24T04:12:11.890Z,0
2017-09-24T04:12:52.345Z,0
2017-09-24T04:13:32.807Z,0
2017-09-24T04:14:13.263Z,0
2017-09-24T04:14:53.713Z,0
2017-09-24T04:15:34.172Z,0
2017-09-24T04:16:14.631Z,0
2017-09-24T04:16:55.086Z,0
2017-09-24T04:17:35.523Z,0
2017-09-24T04:18:15.957Z,0
2017-09-24T04:18:56.411Z,0
2017-09-24T04:19:36.863Z,0
2017-09-24T04:20:17.332Z,0
2017-09-24T04:20:57.781Z,0
2017-09-24T04:21:38.234Z,0
2017-09-24T04:22:18.688Z,0
2017-09-24T04:22:59.147Z,0
2017-09-24T04:23:39.598Z,0
2017-09-24T04:24:20.050Z,0
2017-09-24T04:25:00.510Z,0
2017-09-24T04:25:40.961Z,0
2017-09-24T04:26:21.415Z,0
2017-09-24T04:27:01.872Z,0
2017-09-24T04:27:42.339Z,0
2017-09-24T04:28:22.797Z,0
2017-09-24T04:29:03.284Z,0
2017-09-24T04:29:43.739Z,0
2017-09-24T04:30:24.194Z,0
2017-09-24T04:31:04.652Z,0
2017-09-24T04:31:45.106Z,0
2017-09-24T04:32:25.562Z,0
2017-09-24T04:33:06.024Z,0
2017-09-24T04:33:46.479Z,0
2017-09-24T04:34:26.935Z,0
2017-09-24T04:35:07.384Z,0
2017-09-24T04:35:47.832Z,0
2017-09-24T04:36:28.290Z,0
2017-09-24T04:37:08.740Z,0
2017-09-24T04:37:49.196Z,0
2017-09-24T04:38:29.653Z,0
2017-09-24T04:41:02.731Z,0
2017-09-24T04:41:43.182Z,0
2017-09-24T04:42:23.633Z,0
2017-09-24T04:43:04.088Z,0
2017-09-24T04:43:44.540Z,0
2017-09-24T04:44:24.993Z,0
2017-09-24T04:45:05.448Z,0
2017-09-24T04:45:45.903Z,0
2017-09-24T04:46:26.358Z,0
2017-09-24T04:47:06.813Z,0
2017-09-24T04:47:47.288Z,0
2017-09-24T04:48:27.715Z,0
2017-09-24T04:49:08.164Z,0
2017-09-24T04:49:48.612Z,0
2017-09-24T04:50:29.069Z,0
2017-09-24T04:51:09.523Z,0
2017-09-24T04:51:49.965Z,0
2017-09-24T04:52:30.425Z,0
2017-09-24T04:53:10.881Z,0
2017-09-24T04:53:51.334Z,0
2017-09-24T04:54:31.805Z,0
2017-09-24T04:55:12.242Z,0
2017-09-24T04:55:52.695Z,0
2017-09-24T04:56:33.150Z,0
2017-09-24T04:57:13.599Z,0
2017-09-24T04:57:54.060Z,0
2017-09-24T04:58:34.515Z,0
2017-09-24T04:59:14.984Z,0
2017-09-24T04:59:55.423Z,0
2017-09-24T05:00:35.916Z,0
2017-09-24T05:01:16.376Z,0
2017-09-24T05:01:56.824Z,0
2017-09-24T05:02:37.277Z,0
2017-09-24T05:03:17.742Z,0
2017-09-24T05:03:58.185Z,0
2017-09-24T05:04:38.645Z,0
2017-09-24T05:05:19.090Z,0
2017-09-24T05:05:59.536Z,0
2017-09-24T05:06:39.984Z,0
2017-09-24T05:07:20.433Z,0
2017-09-24T05:08:00.888Z,0
2017-09-24T05:08:41.350Z,0
2017-09-24T05:09:21.792Z,0
2017-09-24T05:10:02.258Z,0
2017-09-24T05:10:42.709Z,0
2017-09-24T05:11:23.170Z,0
2017-09-24T05:12:03.622Z,0
2017-09-24T05:12:44.074Z,0
2017-09-24T05:13:24.529Z,0
2017-09-24T05:14:04.983Z,0
2017-09-24T05:14:45.436Z,0
2017-09-24T05:15:25.891Z,0
2017-09-24T05:16:06.351Z,0
2017-09-24T05:16:46.807Z,0
2017-09-24T05:17:27.257Z,0
2017-09-24T05:18:07.715Z,0
2017-09-24T05:18:48.172Z,0
2017-09-24T05:19:28.628Z,0
2017-09-24T05:20:09.104Z,0
2017-09-24T05:20:49.539Z,0
2017-09-24T05:21:29.989Z,0
2017-09-24T05:22:10.437Z,0
2017-09-24T05:22:50.902Z,0
2017-09-24T05:23:31.350Z,0
2017-09-24T05:24:11.800Z,0
2017-09-24T05:24:52.255Z,0
2017-09-24T05:25:32.700Z,0
2017-09-24T05:26:13.156Z,0
2017-09-24T05:26:53.619Z,0
2017-09-24T05:27:34.081Z,0
2017-09-24T05:28:14.529Z,0
2017-09-24T05:28:54.994Z,0
2017-09-24T05:29:35.458Z,0
2017-09-24T05:30:15.896Z,0
2017-09-24T05:30:56.355Z,0
2017-09-24T05:31:36.808Z,0
2017-09-24T05:32:17.256Z,0
2017-09-24T05:32:57.711Z,0
2017-09-24T05:33:38.174Z,0
2017-09-24T05:34:18.667Z,0
2017-09-24T05:34:59.120Z,0
2017-09-24T05:35:39.583Z,0
2017-09-24T05:36:20.047Z,0
2017-09-24T05:37:00.503Z,0
2017-09-24T05:37:40.958Z,0
2017-09-24T05:38:21.412Z,0
2017-09-24T05:39:01.867Z,0
2017-09-24T05:39:42.320Z,0
2017-09-24T05:40:22.765Z,0
2017-09-24T05:41:03.213Z,0
2017-09-24T05:41:43.665Z,0
2017-09-24T05:42:24.117Z,0
2017-09-24T05:43:04.568Z,0
2017-09-24T05:43:45.040Z,0
2017-09-24T05:44:25.486Z,0
2017-09-24T05:45:05.941Z,0
2017-09-24T05:45:46.397Z,0
2017-09-24T05:46:26.857Z,0
2017-09-24T05:47:07.308Z,0
2017-09-24T05:47:47.773Z,0
2017-09-24T05:48:28.214Z,0
2017-09-24T05:49:08.677Z,0
2017-09-24T05:49:49.137Z,0
2017-09-24T05:50:29.593Z,0
2017-09-24T05:51:10.065Z,0
2017-09-24T05:51:50.505Z,0
2017-09-24T05:52:30.953Z,0
2017-09-24T05:53:11.402Z,0
2017-09-24T05:53:51.859Z,0
2017-09-24T05:54:32.309Z,0
2017-09-24T05:55:12.761Z,0
2017-09-24T05:55:53.208Z,0
2017-09-24T05:56:33.653Z,0
2017-09-24T05:57:14.130Z,0
2017-09-24T05:57:54.571Z,0
2017-09-24T05:58:35.032Z,0
2017-09-24T05:59:15.481Z,0
2017-09-24T05:59:55.941Z,0
2017-09-24T06:00:36.402Z,0
2017-09-24T06:01:16.858Z,0
2017-09-24T06:01:57.478Z,0
2017-09-24T06:02:37.767Z,0
2017-09-24T06:03:18.218Z,0
2017-09-24T06:03:58.670Z,0
2017-09-24T06:04:39.127Z,0
2017-09-24T06:05:19.583Z,0
2017-09-24T06:06:00.036Z,0
2017-09-24T06:06:40.493Z,0
2017-09-24T06:07:20.932Z,0
2017-09-24T06:08:01.392Z,0
2017-09-24T06:08:41.846Z,0
2017-09-24T06:09:22.296Z,0
2017-09-24T06:10:02.751Z,0
2017-09-24T06:10:43.222Z,0
2017-09-24T06:11:23.660Z,0
2017-09-24T06:12:04.121Z,0
2017-09-24T06:12:44.578Z,0
2017-09-24T06:13:25.035Z,0
2017-09-24T06:14:05.493Z,0
2017-09-24T06:14:45.946Z,0
2017-09-24T06:15:26.404Z,0
2017-09-24T06:16:06.857Z,0
2017-09-24T06:16:47.312Z,0
2017-09-24T06:17:27.799Z,0
2017-09-24T06:18:08.215Z,0
2017-09-24T06:18:48.669Z,0
2017-09-24T06:19:29.142Z,0
2017-09-24T06:20:09.586Z,0
2017-09-24T06:20:50.034Z,0
2017-09-24T06:21:30.479Z,0
2017-09-24T06:22:10.930Z,0
2017-09-24T06:22:51.388Z,0
2017-09-24T06:23:31.841Z,0
2017-09-24T06:24:12.290Z,0
2017-09-24T06:24:52.757Z,0
2017-09-24T06:25:33.206Z,0
2017-09-24T06:26:13.661Z,0
2017-09-24T06:26:54.114Z,0
2017-09-24T06:27:34.572Z,0
2017-09-24T06:28:15.030Z,0
2017-09-24T06:28:55.480Z,0
2017-09-24T06:29:35.943Z,0
2017-09-24T06:30:16.394Z,0
2017-09-24T06:30:56.855Z,0
2017-09-24T06:31:37.316Z,0
2017-09-24T06:32:17.770Z,0
2017-09-24T06:32:58.222Z,0
2017-09-24T06:33:38.682Z,0
2017-09-24T06:34:19.138Z,0
2017-09-24T06:34:59.594Z,0
2017-09-24T06:35:40.044Z,0
2017-09-24T06:36:20.494Z,0
2017-09-24T06:37:00.949Z,0
2017-09-24T06:37:41.398Z,0
2017-09-24T06:38:22.100Z,0
2017-09-24T06:39:02.456Z,0
2017-09-24T06:39:42.989Z,0
2017-09-24T06:40:23.323Z,0
2017-09-24T06:41:03.774Z,0
2017-09-24T06:41:44.541Z,0
2017-09-24T06:42:25.001Z,0
2017-09-24T06:43:05.537Z,0
2017-09-24T06:43:45.976Z,0
2017-09-24T06:44:26.436Z,0
2017-09-24T06:45:06.877Z,0
2017-09-24T06:45:47.367Z,0
2017-09-24T06:46:27.827Z,0
2017-09-24T06:47:08.301Z,0
2017-09-24T06:47:48.735Z,0
2017-09-24T06:48:29.181Z,0
2017-09-24T06:49:09.659Z,0
2017-09-24T06:49:50.106Z,0
2017-09-24T06:50:30.556Z,0
2017-09-24T06:51:11.004Z,0
2017-09-24T06:51:51.454Z,0
2017-09-24T06:52:31.906Z,0
2017-09-24T06:53:12.362Z,0
2017-09-24T06:53:52.827Z,0
2017-09-24T06:54:33.279Z,0
2017-09-24T06:55:13.733Z,0
2017-09-24T06:55:54.195Z,0
2017-09-24T06:56:34.650Z,0
2017-09-24T06:57:15.101Z,0
2017-09-24T06:57:55.548Z,0
2017-09-24T06:58:36.014Z,0
2017-09-24T06:59:16.476Z,0
2017-09-24T06:59:56.932Z,0
2017-09-24T07:00:37.469Z,0
2017-09-24T07:01:17.839Z,0
2017-09-24T07:01:58.293Z,0
2017-09-24T07:02:38.748Z,0
2017-09-24T07:03:19.203Z,0
2017-09-24T07:03:59.656Z,0
2017-09-24T07:04:40.106Z,0
2017-09-24T07:05:20.563Z,0
2017-09-24T07:06:01.012Z,0
2017-09-24T07:06:41.476Z,0
2017-09-24T07:07:21.936Z,0
2017-09-24T07:08:02.391Z,0
2017-09-24T07:08:42.827Z,0
2017-09-24T07:09:23.284Z,0
2017-09-24T07:10:03.740Z,0
2017-09-24T07:10:44.187Z,0
2017-09-24T07:11:24.634Z,0
2017-09-24T07:12:05.096Z,0
2017-09-24T07:12:45.629Z,0
2017-09-24T07:13:26.088Z,0
2017-09-24T07:14:06.546Z,0
2017-09-24T07:14:46.989Z,0
2017-09-24T07:15:27.440Z,0
2017-09-24T07:16:07.893Z,0
2017-09-24T07:16:48.351Z,0
2017-09-24T07:17:28.835Z,0
2017-09-24T07:18:09.293Z,0
2017-09-24T07:18:49.739Z,0
2017-09-24T07:19:30.192Z,0
2017-09-24T07:20:10.663Z,0
2017-09-24T07:20:51.122Z,0
2017-09-24T07:21:31.955Z,0
2017-09-24T07:22:12.427Z,0
2017-09-24T07:22:52.873Z,0
2017-09-24T07:23:33.321Z,0
2017-09-24T07:24:13.785Z,0
2017-09-24T07:24:54.242Z,0
2017-09-24T07:25:34.696Z,0
2017-09-24T07:26:15.179Z,0
2017-09-24T07:26:55.630Z,0
2017-09-24T07:27:36.070Z,0
2017-09-24T07:28:16.560Z,0
2017-09-24T07:28:57.016Z,0
2017-09-24T07:29:37.490Z,0
2017-09-24T07:30:17.932Z,0
2017-09-24T07:30:58.445Z,0
2017-09-24T07:31:38.904Z,0
2017-09-24T07:32:19.350Z,0
2017-09-24T07:32:59.819Z,0
2017-09-24T07:33:40.283Z,0
2017-09-24T07:34:20.730Z,0
2017-09-24T07:35:01.184Z,0
2017-09-24T07:35:41.644Z,0
2017-09-24T07:36:22.105Z,0
2017-09-24T07:37:02.556Z,0
2017-09-24T07:37:42.995Z,0
2017-09-24T07:38:23.447Z,0
2017-09-24T07:39:03.897Z,0
2017-09-24T07:39:44.347Z,0
2017-09-24T07:40:24.805Z,0
2017-09-24T07:41:05.263Z,0
2017-09-24T07:41:45.726Z,0
2017-09-24T07:42:26.176Z,0
2017-09-24T07:43:06.621Z,0
2017-09-24T07:43:47.077Z,0
2017-09-24T07:44:27.523Z,0
2017-09-24T07:45:07.982Z,0
2017-09-24T07:45:48.431Z,0
2017-09-24T07:46:28.892Z,0
2017-09-24T07:47:09.354Z,0
2017-09-24T07:47:49.809Z,0
2017-09-24T07:48:30.265Z,0
2017-09-24T07:49:10.723Z,0
2017-09-24T07:49:51.186Z,0
2017-09-24T07:50:31.633Z,0
2017-09-24T07:51:12.095Z,0
2017-09-24T07:51:52.550Z,0
2017-09-24T07:52:32.995Z,0
2017-09-24T07:53:13.449Z,0
2017-09-24T07:53:53.900Z,0
2017-09-24T07:54:34.350Z,0
2017-09-24T07:55:14.806Z,0
2017-09-24T07:55:55.273Z,0
2017-09-24T07:56:35.726Z,0
2017-09-24T07:57:16.179Z,0
2017-09-24T07:57:56.657Z,0
2017-09-24T07:58:37.106Z,0
2017-09-24T07:59:17.563Z,0
2017-09-24T07:59:58.018Z,0
2017-09-24T08:00:38.474Z,0
2017-09-24T08:01:18.997Z,0
2017-09-24T08:01:59.453Z,0
2017-09-24T08:02:39.969Z,0
2017-09-24T08:03:20.428Z,0
2017-09-24T08:04:00.890Z,0
2017-09-24T08:04:41.375Z,0
2017-09-24T08:05:21.835Z,0
2017-09-24T08:06:02.293Z,0
2017-09-24T08:06:42.751Z,0
2017-09-24T08:07:23.200Z,0
2017-09-24T08:08:03.648Z,0
2017-09-24T08:08:44.109Z,0
2017-09-24T08:09:24.557Z,0
2017-09-24T08:10:05.005Z,0
2017-09-24T08:10:45.452Z,0
2017-09-24T08:11:25.908Z,0
2017-09-24T08:12:06.365Z,0
2017-09-24T08:12:46.820Z,0
2017-09-24T08:13:27.256Z,0
2017-09-24T08:14:07.736Z,0
2017-09-24T08:14:48.198Z,0
2017-09-24T08:15:28.651Z,0
2017-09-24T08:16:09.111Z,0
2017-09-24T08:16:49.556Z,0
2017-09-24T08:17:30.009Z,0
2017-09-24T08:18:10.463Z,0
2017-09-24T08:18:50.914Z,0
2017-09-24T08:19:31.374Z,0
2017-09-24T08:20:11.831Z,0
2017-09-24T08:20:52.297Z,0
2017-09-24T08:21:32.753Z,0
2017-09-24T08:22:13.190Z,0
2017-09-24T08:22:53.647Z,0
2017-09-24T08:23:34.110Z,0
2017-09-24T08:24:14.565Z,0
2017-09-24T08:24:55.022Z,0
2017-09-24T08:25:35.483Z,0
2017-09-24T08:26:15.937Z,0
2017-09-24T08:26:56.475Z,0
2017-09-24T08:27:36.936Z,0
2017-09-24T08:28:17.455Z,0
2017-09-24T08:28:57.876Z,0
2017-09-24T08:29:38.323Z,0
2017-09-24T08:30:18.770Z,0
2017-09-24T08:30:59.230Z,0
2017-09-24T08:31:39.669Z,0
2017-09-24T08:32:20.113Z,0
2017-09-24T08:33:00.589Z,0
2017-09-24T08:33:41.045Z,0
2017-09-24T08:34:21.495Z,0
2017-09-24T08:35:01.950Z,0
2017-09-24T08:35:42.404Z,0
2017-09-24T08:36:22.888Z,0
2017-09-24T08:37:03.342Z,0
2017-09-24T08:37:43.802Z,0
2017-09-24T08:38:24.267Z,0
2017-09-24T08:39:04.725Z,0
2017-09-24T08:39:45.178Z,0
2017-09-24T08:40:25.630Z,0
2017-09-24T08:41:06.079Z,0
2017-09-24T08:41:46.525Z,0
2017-09-24T08:42:26.985Z,0
2017-09-24T08:43:07.607Z,0
2017-09-24T08:43:48.134Z,0
2017-09-24T08:44:28.604Z,0
2017-09-24T08:45:09.057Z,0
2017-09-24T08:45:49.508Z,0
2017-09-24T08:46:29.977Z,0
2017-09-24T08:47:10.533Z,85
2017-09-24T08:47:50.954Z,145
2017-09-24T08:48:31.412Z,150
2017-09-24T08:49:11.868Z,150
2017-09-24T08:49:52.325Z,155
2017-09-24T08:50:32.778Z,155
2017-09-24T08:51:13.236Z,155
2017-09-24T08:51:53.698Z,155
2017-09-24T08:52:34.159Z,155
2017-09-24T08:53:14.613Z,155
2017-09-24T08:53:55.065Z,155
2017-09-24T08:54:35.535Z,155
2017-09-24T08:55:15.974Z,155
2017-09-24T08:55:56.425Z,155
2017-09-24T08:56:36.882Z,160
2017-09-24T08:57:17.338Z,160
2017-09-24T08:57:57.786Z,155
2017-09-24T08:58:38.236Z,155
2017-09-24T08:59:18.692Z,155
2017-09-24T08:59:59.154Z,155
2017-09-24T09:00:39.632Z,155
2017-09-24T09:03:07.755Z,160
2017-09-24T09:03:48.200Z,160
2017-09-24T09:04:28.647Z,160
2017-09-24T09:05:09.096Z,160
2017-09-24T09:05:49.556Z,160
2017-09-24T09:06:30.009Z,160
2017-09-24T09:07:10.467Z,160
2017-09-24T09:07:51.083Z,160
2017-09-24T09:08:31.439Z,155
2017-09-24T09:09:11.895Z,160
2017-09-24T09:09:52.354Z,160
2017-09-24T09:10:32.816Z,155
2017-09-24T09:11:13.269Z,155
2017-09-24T09:11:53.718Z,155
2017-09-24T09:12:34.173Z,160
2017-09-24T09:13:14.636Z,160
2017-09-24T09:13:55.087Z,160
2017-09-24T09:14:35.541Z,165
2017-09-24T09:15:15.995Z,160
2017-09-24T09:15:56.447Z,160
2017-09-24T09:16:36.896Z,160
2017-09-24T09:17:17.345Z,160
2017-09-24T09:17:57.793Z,165
2017-09-24T09:18:38.242Z,160
2017-09-24T09:19:18.686Z,165
2017-09-24T09:19:59.127Z,165
2017-09-24T09:20:39.578Z,165
2017-09-24T09:21:20.087Z,165
2017-09-24T09:22:00.575Z,165
2017-09-24T09:22:41.033Z,165
2017-09-24T09:23:21.490Z,165
2017-09-24T09:24:01.939Z,165
2017-09-24T09:24:42.395Z,160
2017-09-24T09:25:22.850Z,160
2017-09-24T09:26:03.316Z,160
2017-09-24T09:26:43.769Z,155
2017-09-24T09:27:24.225Z,155
2017-09-24T09:28:04.684Z,155
2017-09-24T09:28:45.681Z,155
2017-09-24T09:29:26.141Z,155
2017-09-24T09:30:06.593Z,155
2017-09-24T09:30:47.050Z,155
2017-09-24T09:31:27.520Z,160
2017-09-24T09:32:07.979Z,160
2017-09-24T09:32:48.428Z,160
2017-09-24T09:33:28.883Z,160
2017-09-24T09:34:09.369Z,160
2017-09-24T09:34:49.801Z,160
2017-09-24T09:35:30.304Z,165
2017-09-24T09:36:10.749Z,165
2017-09-24T09:36:51.216Z,165
2017-09-24T09:37:31.669Z,165
2017-09-24T09:38:12.124Z,165
2017-09-24T09:38:52.581Z,160
2017-09-24T09:39:33.033Z,160
2017-09-24T09:40:13.489Z,160
2017-09-24T09:40:53.946Z,155
2017-09-24T09:41:34.396Z,155
2017-09-24T09:42:14.851Z,155
2017-09-24T09:42:55.307Z,155
2017-09-24T09:43:35.752Z,150
2017-09-24T09:44:16.207Z,145
2017-09-24T09:44:56.664Z,145
2017-09-24T09:45:37.117Z,145
2017-09-24T09:46:17.576Z,145
2017-09-24T09:46:58.031Z,145
2017-09-24T09:47:38.486Z,145
2017-09-24T09:48:18.944Z,140
2017-09-24T09:48:59.398Z,140
2017-09-24T09:49:39.847Z,140
2017-09-24T09:50:20.354Z,140
2017-09-24T09:51:00.832Z,145
2017-09-24T09:51:41.243Z,145
2017-09-24T09:52:21.698Z,145
2017-09-24T09:53:02.152Z,145
2017-09-24T09:53:42.602Z,150
2017-09-24T09:54:23.070Z,150
2017-09-24T09:55:03.529Z,150
2017-09-24T09:55:43.986Z,155
2017-09-24T09:56:24.447Z,155
2017-09-24T09:57:04.906Z,155
2017-09-24T09:57:45.447Z,150
2017-09-24T09:58:25.916Z,145
2017-09-24T10:00:53.978Z,85
2017-09-24T10:01:34.432Z,85
2017-09-24T10:02:14.927Z,85